createdAt,value
2022-09-04T00:00:11.934Z,48.10
2022-09-04T00:02:48.797Z,48.10
2022-09-04T00:05:24.044Z,48.30
2022-09-04T00:08:21.145Z,48.50
2022-09-04T00:10:56.863Z,48.60
2022-09-04T00:13:28.439Z,48.60
2022-09-04T00:16:20.096Z,48.60
2022-09-04T00:19:03.338Z,48.70
2022-09-04T00:21:39.847Z,48.80
2022-09-04T00:24:17.769Z,48.80
2022-09-04T00:27:12.255Z,48.80
2022-09-04T00:30:07.470Z,48.80
2022-09-04T00:32:52.823Z,48.80
2022-09-04T00:35:24.813Z,48.80
2022-09-04T00:37:56.403Z,48.90
2022-09-04T00:40:33.822Z,49.00
2022-09-04T00:43:42.884Z,49.20
2022-09-04T00:46:33.777Z,49.40
2022-09-04T00:49:03.401Z,49.40
2022-09-04T00:52:01.323Z,49.40
2022-09-04T00:55:22.005Z,49.70
2022-09-04T00:57:51.655Z,49.70
2022-09-04T01:00:20.893Z,49.80
2022-09-04T01:03:25.033Z,50.00
2022-09-04T01:06:15.293Z,50.20
2022-09-04T01:09:34.237Z,50.30
2022-09-04T01:12:32.643Z,50.40
2022-09-04T01:15:04.188Z,50.60
2022-09-04T01:17:39.204Z,50.60
2022-09-04T01:20:17.021Z,50.80
2022-09-04T01:23:02.289Z,50.90
2022-09-04T01:25:53.027Z,51.20
2022-09-04T01:28:27.665Z,51.30
2022-09-04T01:31:02.567Z,51.30
2022-09-04T01:33:57.611Z,51.50
2022-09-04T01:36:48.584Z,51.50
2022-09-04T01:39:20.997Z,51.60
2022-09-04T01:42:00.341Z,51.50
2022-09-04T01:44:27.406Z,51.60
2022-09-04T01:47:03.587Z,51.50
2022-09-04T01:49:36.250Z,51.60
2022-09-04T01:52:33.379Z,51.70
2022-09-04T01:55:05.793Z,51.80
2022-09-04T01:57:47.077Z,51.80
2022-09-04T02:00:17.912Z,51.80
2022-09-04T02:02:47.820Z,51.90
2022-09-04T02:05:49.589Z,51.90
2022-09-04T02:08:31.670Z,52.10
2022-09-04T02:11:12.759Z,52.20
2022-09-04T02:14:15.136Z,52.20
2022-09-04T02:16:48.309Z,52.40
2022-09-04T02:19:27.210Z,52.30
2022-09-04T02:22:32.924Z,52.50
2022-09-04T02:25:17.588Z,52.60
2022-09-04T02:28:07.985Z,52.50
2022-09-04T02:30:54.274Z,52.70
2022-09-04T02:33:32.576Z,52.70
2022-09-04T02:36:06.889Z,52.80
2022-09-04T02:38:51.630Z,52.90
2022-09-04T02:41:35.583Z,53.10
2022-09-04T02:44:13.450Z,53.30
2022-09-04T02:47:13.985Z,53.30
2022-09-04T02:50:03.742Z,53.50
2022-09-04T02:52:55.004Z,53.70
2022-09-04T02:55:42.199Z,53.80
2022-09-04T02:58:44.100Z,53.80
2022-09-04T03:01:49.191Z,54.00
2022-09-04T03:04:20.594Z,54.10
2022-09-04T03:06:59.744Z,54.10
2022-09-04T03:09:45.916Z,54.30
2022-09-04T03:12:26.690Z,54.30
2022-09-04T03:15:10.756Z,54.50
2022-09-04T03:17:49.468Z,54.70
2022-09-04T03:20:31.472Z,54.80
2022-09-04T03:23:24.731Z,55.10
2022-09-04T03:26:23.787Z,55.10
2022-09-04T03:29:15.630Z,55.30
2022-09-04T03:31:56.001Z,55.60
2022-09-04T03:34:50.722Z,55.70
2022-09-04T03:37:27.230Z,55.90
2022-09-04T03:40:12.253Z,55.80
2022-09-04T03:43:07.101Z,56.10
2022-09-04T03:45:47.477Z,56.30
2022-09-04T03:48:38.940Z,56.40
2022-09-04T03:51:34.345Z,56.40
2022-09-04T03:54:26.174Z,56.60
2022-09-04T03:57:08.063Z,56.70
2022-09-04T03:59:52.596Z,56.90
2022-09-04T04:02:32.436Z,57.00
2022-09-04T04:05:12.100Z,57.10
2022-09-04T04:07:49.496Z,57.30
2022-09-04T04:10:39.320Z,57.50
2022-09-04T04:13:28.162Z,57.70
2022-09-04T04:16:25.478Z,57.90
2022-09-04T04:19:17.130Z,58.10
2022-09-04T04:21:54.878Z,58.20
2022-09-04T04:24:39.672Z,58.10
2022-09-04T04:27:23.590Z,58.30
2022-09-04T04:30:00.804Z,58.40
2022-09-04T04:33:02.355Z,58.40
2022-09-04T04:35:34.772Z,58.70
2022-09-04T04:38:31.709Z,58.60
2022-09-04T04:41:27.337Z,58.90
2022-09-04T04:44:07.732Z,58.90
2022-09-04T04:47:08.092Z,58.90
2022-09-04T04:50:06.372Z,59.00
2022-09-04T04:52:40.428Z,59.10
2022-09-04T04:55:13.455Z,59.00
2022-09-04T04:57:56.579Z,59.10
2022-09-04T05:00:40.575Z,59.20
2022-09-04T05:03:32.288Z,59.20
2022-09-04T05:06:25.812Z,59.30
2022-09-04T05:09:14.741Z,59.40
2022-09-04T05:12:06.493Z,59.20
2022-09-04T05:14:48.808Z,59.40
2022-09-04T05:17:45.528Z,59.30
2022-09-04T05:20:20.770Z,59.50
2022-09-04T05:22:51.061Z,59.60
2022-09-04T05:25:35.362Z,59.60
2022-09-04T05:28:04.882Z,59.80
2022-09-04T05:30:56.879Z,59.70
2022-09-04T05:33:34.289Z,60.00
2022-09-04T05:36:37.988Z,60.00
2022-09-04T05:39:34.546Z,60.40
2022-09-04T05:42:42.022Z,60.60
2022-09-04T05:45:49.322Z,60.60
2022-09-04T05:48:59.152Z,60.70
2022-09-04T05:51:54.298Z,60.80
2022-09-04T05:54:45.018Z,60.80
2022-09-04T05:57:47.106Z,60.90
2022-09-04T06:00:16.603Z,61.10
2022-09-04T06:02:46.549Z,61.00
2022-09-04T06:05:26.371Z,61.20
2022-09-04T06:08:01.885Z,61.30
2022-09-04T06:10:47.762Z,61.50
2022-09-04T06:13:33.285Z,61.70
2022-09-04T06:16:39.262Z,61.80
2022-09-04T06:19:26.127Z,61.90
2022-09-04T06:22:10.476Z,61.80
2022-09-04T06:25:09.397Z,61.80
2022-09-04T06:27:55.390Z,61.90
2022-09-04T06:30:22.559Z,61.80
2022-09-04T06:33:16.533Z,61.70
2022-09-04T06:36:04.535Z,61.80
2022-09-04T06:38:49.392Z,61.70
2022-09-04T06:41:32.599Z,61.70
2022-09-04T06:44:20.993Z,61.70
2022-09-04T06:47:12.733Z,61.70
2022-09-04T06:50:01.278Z,61.90
2022-09-04T06:53:06.929Z,62.00
2022-09-04T06:56:04.506Z,62.10
2022-09-04T06:59:06.204Z,62.10
2022-09-04T07:01:44.077Z,62.20
2022-09-04T07:04:49.786Z,62.30
2022-09-04T07:07:30.726Z,62.60
2022-09-04T07:10:10.599Z,62.50
2022-09-04T07:12:56.393Z,62.80
2022-09-04T07:15:57.011Z,63.10
2022-09-04T07:18:33.925Z,63.20
2022-09-04T07:21:15.426Z,63.00
2022-09-04T07:23:50.760Z,63.10
2022-09-04T07:26:46.186Z,62.90
2022-09-04T07:29:29.537Z,62.80
2022-09-04T07:32:26.582Z,62.70
2022-09-04T07:35:15.483Z,62.60
2022-09-04T07:38:00.377Z,62.40
2022-09-04T07:40:39.334Z,62.30
2022-09-04T07:43:12.485Z,62.10
2022-09-04T07:45:51.175Z,62.00
2022-09-04T07:48:28.628Z,62.00
2022-09-04T07:51:13.262Z,61.80
2022-09-04T07:53:57.932Z,61.60
2022-09-04T07:57:01.279Z,61.40
2022-09-04T07:59:53.199Z,61.40
2022-09-04T08:02:35.596Z,61.20
2022-09-04T08:05:29.764Z,61.00
2022-09-04T08:08:23.396Z,60.80
2022-09-04T08:11:02.558Z,60.60
2022-09-04T08:13:45.330Z,60.40
2022-09-04T08:16:24.409Z,60.30
2022-09-04T08:19:15.688Z,60.10
2022-09-04T08:21:44.426Z,60.00
2022-09-04T08:24:37.185Z,60.00
2022-09-04T08:27:44.167Z,59.90
2022-09-04T08:30:14.687Z,59.90
2022-09-04T08:33:14.580Z,59.70
2022-09-04T08:35:57.356Z,59.70
2022-09-04T08:38:41.608Z,59.50
2022-09-04T08:41:30.369Z,59.20
2022-09-04T08:43:57.513Z,58.90
2022-09-04T08:46:56.341Z,58.60
2022-09-04T08:49:54.146Z,58.30
2022-09-04T08:52:50.784Z,58.10
2022-09-04T08:55:46.234Z,57.60
2022-09-04T08:58:37.720Z,57.10
2022-09-04T09:01:29.378Z,56.90
2022-09-04T09:04:19.905Z,56.80
2022-09-04T09:07:00.291Z,56.30
2022-09-04T09:10:05.278Z,56.20
2022-09-04T09:12:40.988Z,55.60
2022-09-04T09:15:26.959Z,55.10
2022-09-04T09:18:31.271Z,54.90
2022-09-04T09:21:16.722Z,54.70
2022-09-04T09:24:20.863Z,54.40
2022-09-04T09:27:15.512Z,53.80
2022-09-04T09:30:09.274Z,53.50
2022-09-04T09:33:11.882Z,53.10
2022-09-04T09:35:57.968Z,52.50
2022-09-04T09:38:36.623Z,52.10
2022-09-04T09:41:42.558Z,51.90
2022-09-04T09:44:52.760Z,51.60
2022-09-04T09:47:44.259Z,51.30
2022-09-04T09:50:23.166Z,51.10
2022-09-04T09:53:36.358Z,51.10
2022-09-04T09:56:24.360Z,50.90
2022-09-04T09:59:10.105Z,51.00
2022-09-04T10:02:05.338Z,50.70
2022-09-04T10:04:40.265Z,50.00
2022-09-04T10:07:18.432Z,49.90
2022-09-04T10:09:45.148Z,49.50
2022-09-04T10:12:19.204Z,49.30
2022-09-04T10:14:53.693Z,49.10
2022-09-04T10:18:03.687Z,48.70
2022-09-04T10:20:55.398Z,48.70
2022-09-04T10:23:25.353Z,48.40
2022-09-04T10:26:01.102Z,48.20
2022-09-04T10:28:45.470Z,48.00
2022-09-04T10:31:27.062Z,48.00
2022-09-04T10:34:24.068Z,47.40
2022-09-04T10:37:37.457Z,47.40
2022-09-04T10:40:43.903Z,46.90
2022-09-04T10:43:36.957Z,47.00
2022-09-04T10:46:26.164Z,46.70
2022-09-04T10:49:18.121Z,46.40
2022-09-04T10:52:12.851Z,46.10
2022-09-04T10:55:11.821Z,45.70
2022-09-04T10:57:54.497Z,45.50
2022-09-04T11:00:25.781Z,45.10
2022-09-04T11:03:23.187Z,44.80
2022-09-04T11:06:11.878Z,44.10
2022-09-04T11:09:16.745Z,44.20
2022-09-04T11:11:52.856Z,43.70
2022-09-04T11:14:28.458Z,43.80
2022-09-04T11:17:32.814Z,43.40
2022-09-04T11:20:18.477Z,43.10
2022-09-04T11:22:48.227Z,43.00
2022-09-04T11:25:44.445Z,43.30
2022-09-04T11:28:33.021Z,43.70
2022-09-04T11:31:27.594Z,43.80
2022-09-04T11:34:33.024Z,43.80
2022-09-04T11:37:15.807Z,43.80
2022-09-04T11:40:10.468Z,43.80
2022-09-04T11:43:03.426Z,44.30
2022-09-04T11:45:56.788Z,44.50
2022-09-04T11:48:29.105Z,44.60
2022-09-04T11:51:40.612Z,44.80
2022-09-04T11:54:47.547Z,44.90
2022-09-04T11:57:40.565Z,44.60
2022-09-04T12:00:13.514Z,44.60
2022-09-04T12:03:04.622Z,44.50
2022-09-04T12:06:06.444Z,44.40
2022-09-04T12:09:10.707Z,43.90
2022-09-04T12:12:01.009Z,43.90
2022-09-04T12:14:56.865Z,43.70
2022-09-04T12:17:48.315Z,43.70
2022-09-04T12:20:47.923Z,43.80
2022-09-04T12:23:47.741Z,43.50
2022-09-04T12:26:22.555Z,43.60
2022-09-04T12:29:03.407Z,43.70
2022-09-04T12:31:54.707Z,43.30
2022-09-04T12:34:55.096Z,43.20
2022-09-04T12:37:47.905Z,42.80
2022-09-04T12:40:26.790Z,42.40
2022-09-04T12:43:20.473Z,42.10
2022-09-04T12:46:10.766Z,41.70
2022-09-04T12:49:09.244Z,41.70
2022-09-04T12:51:55.771Z,41.90
2022-09-04T12:54:42.189Z,41.90
2022-09-04T12:57:15.163Z,41.90
2022-09-04T12:59:52.401Z,41.90
2022-09-04T13:02:47.040Z,41.70
2022-09-04T13:05:41.884Z,41.30
2022-09-04T13:08:29.962Z,41.20
2022-09-04T13:11:28.509Z,41.30
2022-09-04T13:14:37.417Z,41.10
2022-09-04T13:17:19.549Z,41.40
2022-09-04T13:20:18.795Z,41.40
2022-09-04T13:23:04.520Z,41.30
2022-09-04T13:26:02.084Z,41.00
2022-09-04T13:28:56.816Z,40.80
2022-09-04T13:31:44.248Z,39.20
2022-09-04T13:34:26.691Z,38.60
2022-09-04T13:37:21.191Z,38.60
2022-09-04T13:40:16.722Z,38.50
2022-09-04T13:42:56.523Z,38.60
2022-09-04T13:45:26.830Z,38.70
2022-09-04T13:48:06.380Z,38.60
2022-09-04T13:50:38.721Z,38.60
2022-09-04T13:53:25.245Z,38.50
2022-09-04T13:55:54.369Z,38.60
2022-09-04T13:58:28.054Z,38.20
2022-09-04T14:01:09.814Z,37.40
2022-09-04T14:03:46.224Z,37.30
2022-09-04T14:06:15.717Z,37.00
2022-09-04T14:08:45.733Z,36.80
2022-09-04T14:11:44.480Z,36.90
2022-09-04T14:14:30.940Z,36.40
2022-09-04T14:17:00.037Z,36.30
2022-09-04T14:19:32.600Z,36.10
2022-09-04T14:22:33.628Z,35.90
2022-09-04T14:25:06.487Z,35.70
2022-09-04T14:27:55.595Z,35.40
2022-09-04T14:30:23.573Z,35.00
2022-09-04T14:33:19.163Z,34.90
2022-09-04T14:36:21.662Z,34.90
2022-09-04T14:39:55.102Z,34.80
2022-09-04T14:42:30.043Z,34.80
2022-09-04T14:45:32.495Z,35.00
2022-09-04T14:48:06.284Z,35.10
2022-09-04T14:50:47.934Z,35.30
2022-09-04T14:53:26.371Z,35.10
2022-09-04T14:56:07.994Z,35.10
2022-09-04T14:58:57.773Z,35.30
2022-09-04T15:01:26.594Z,35.40
2022-09-04T15:04:17.899Z,35.50
2022-09-04T15:07:10.959Z,35.50
2022-09-04T15:09:42.806Z,35.60
2022-09-04T15:12:25.790Z,35.30
2022-09-04T15:15:08.577Z,35.10
2022-09-04T15:17:39.653Z,34.80
2022-09-04T15:20:16.130Z,34.80
2022-09-04T15:23:06.174Z,34.90
2022-09-04T15:25:59.203Z,34.80
2022-09-04T15:28:52.962Z,34.70
2022-09-04T15:31:41.835Z,34.80
2022-09-04T15:34:12.272Z,34.40
2022-09-04T15:36:39.313Z,34.10
2022-09-04T15:39:18.584Z,33.80
2022-09-04T15:41:49.842Z,33.70
2022-09-04T15:44:30.349Z,33.90
2022-09-04T15:47:20.265Z,34.20
2022-09-04T15:50:02.178Z,33.70
2022-09-04T15:53:03.617Z,32.60
2022-09-04T15:55:37.370Z,32.00
2022-09-04T15:58:20.034Z,31.50
2022-09-04T16:01:12.132Z,31.30
2022-09-04T16:04:03.187Z,30.80
2022-09-04T16:06:37.266Z,30.50
2022-09-04T16:09:25.709Z,30.20
2022-09-04T16:11:59.606Z,29.40
2022-09-04T16:14:44.729Z,29.60
2022-09-04T16:17:26.472Z,29.40
2022-09-04T16:20:09.791Z,29.10
2022-09-04T16:22:52.888Z,29.10
2022-09-04T16:25:24.133Z,29.10
2022-09-04T16:28:08.065Z,29.40
2022-09-04T16:30:37.471Z,29.50
2022-09-04T16:33:12.878Z,29.60
2022-09-04T16:35:49.583Z,29.70
2022-09-04T16:38:24.210Z,29.80
2022-09-04T16:41:37.645Z,30.10
2022-09-04T16:44:11.089Z,30.10
2022-09-04T16:46:51.364Z,30.20
2022-09-04T16:49:48.157Z,30.30
2022-09-04T16:52:22.113Z,30.20
2022-09-04T16:54:55.353Z,30.20
2022-09-04T16:57:34.197Z,30.20
2022-09-04T17:00:13.764Z,30.20
2022-09-04T17:02:51.147Z,30.20
2022-09-04T17:05:45.839Z,30.30
2022-09-04T17:08:32.735Z,30.20
2022-09-04T17:11:22.326Z,30.30
2022-09-04T17:14:08.608Z,30.40
2022-09-04T17:16:53.616Z,30.60
2022-09-04T17:19:21.982Z,30.70
2022-09-04T17:26:36.029Z,30.80
2022-09-04T17:28:59.946Z,31.10
2022-09-04T17:29:16.513Z,31.30
2022-09-04T17:31:17.320Z,31.40
2022-09-04T17:40:08.952Z,31.20
2022-09-04T17:40:39.585Z,31.40
2022-09-04T17:40:51.296Z,31.50
2022-09-04T17:43:21.497Z,31.60
2022-09-04T17:46:26.435Z,31.80
2022-09-04T17:48:53.954Z,32.00
2022-09-04T17:51:33.753Z,32.20
2022-09-04T17:54:07.171Z,32.40
2022-09-04T17:56:51.533Z,32.60
2022-09-04T17:59:36.640Z,32.90
2022-09-04T18:02:39.877Z,33.10
2022-09-04T18:05:34.074Z,33.40
2022-09-04T18:08:19.894Z,33.60
2022-09-04T18:10:46.685Z,34.00
2022-09-04T18:13:40.092Z,34.30
2022-09-04T18:16:51.703Z,34.80
2022-09-04T18:19:40.536Z,34.90
2022-09-04T18:22:33.601Z,35.10
2022-09-04T18:25:17.817Z,35.50
2022-09-04T18:28:06.580Z,35.90
2022-09-04T18:37:12.402Z,36.30
2022-09-04T18:37:20.114Z,36.40
2022-09-04T18:37:46.411Z,36.60
2022-09-04T18:40:43.082Z,37.20
2022-09-04T18:50:22.702Z,37.10
2022-09-04T18:50:32.728Z,37.50
2022-09-04T18:50:39.644Z,37.80
2022-09-04T18:52:19.974Z,37.90
2022-09-04T18:54:52.312Z,38.50
2022-09-04T18:57:34.853Z,38.80
2022-09-04T19:00:10.351Z,38.80
2022-09-04T19:03:03.611Z,39.10
2022-09-04T19:05:44.843Z,39.00
2022-09-04T19:08:37.347Z,39.10
2022-09-04T19:11:20.840Z,39.30
2022-09-04T19:14:00.730Z,39.70
2022-09-04T19:17:08.060Z,39.90
2022-09-04T19:19:50.067Z,41.50
2022-09-04T19:22:28.511Z,41.20
2022-09-04T19:25:08.129Z,41.30
2022-09-04T19:27:55.248Z,41.40
2022-09-04T19:30:28.491Z,41.70
2022-09-04T19:33:15.905Z,41.70
2022-09-04T19:35:52.289Z,42.40
2022-09-04T19:44:55.104Z,42.60
2022-09-04T19:46:06.997Z,42.80
2022-09-04T19:46:14.130Z,42.70
2022-09-04T19:47:50.966Z,42.50
2022-09-04T19:53:30.813Z,42.60
2022-09-04T19:53:42.382Z,42.90
2022-09-04T19:56:25.374Z,42.50
2022-09-04T19:59:11.496Z,42.50
2022-09-04T20:01:47.222Z,42.90
2022-09-04T20:04:26.239Z,43.10
2022-09-04T20:06:59.732Z,43.20
2022-09-04T20:09:35.801Z,42.90
2022-09-04T20:12:16.278Z,42.80
2022-09-04T20:14:57.636Z,43.00
2022-09-04T20:17:39.662Z,42.90
2022-09-04T20:20:19.243Z,43.20
2022-09-04T20:22:56.268Z,43.30
2022-09-04T20:25:48.645Z,43.40
2022-09-04T20:29:04.317Z,43.40
2022-09-04T20:32:04.066Z,43.30
2022-09-04T20:34:51.449Z,43.40
2022-09-04T20:37:43.564Z,43.90
2022-09-04T20:40:26.927Z,43.80
2022-09-04T20:43:03.129Z,43.80
2022-09-04T20:48:20.838Z,43.90
2022-09-04T20:52:55.259Z,44.10
2022-09-04T20:53:04.638Z,44.20
2022-09-04T20:55:17.737Z,44.00
2022-09-04T21:03:14.758Z,44.00
2022-09-04T21:03:22.693Z,44.30
2022-09-04T21:04:42.726Z,44.30
2022-09-04T21:07:36.068Z,44.40
2022-09-04T21:10:21.175Z,44.50
2022-09-04T21:12:47.881Z,44.70
2022-09-04T21:15:34.404Z,44.70
2022-09-04T21:18:17.651Z,44.80
2022-09-04T21:21:09.537Z,45.10
2022-09-04T21:24:02.771Z,45.10
2022-09-04T21:27:14.450Z,45.10
2022-09-04T21:29:59.389Z,45.20
2022-09-04T21:33:00.732Z,45.30
2022-09-04T21:36:26.879Z,45.70
2022-09-04T21:39:31.015Z,45.50
2022-09-04T21:42:36.428Z,45.50
2022-09-04T21:45:21.763Z,45.70
2022-09-04T21:48:18.515Z,45.70
2022-09-04T21:51:01.792Z,45.90
2022-09-04T21:53:41.600Z,46.00
2022-09-04T22:00:19.241Z,45.90
2022-09-04T22:02:39.061Z,46.00
2022-09-04T22:02:52.798Z,46.00
2022-09-04T22:05:40.915Z,46.20
2022-09-04T22:11:51.649Z,46.20
2022-09-04T22:13:32.585Z,46.20
2022-09-04T22:14:42.844Z,46.30
2022-09-04T22:17:40.393Z,46.50
2022-09-04T22:20:40.927Z,46.60
2022-09-04T22:23:32.957Z,46.70
2022-09-04T22:26:24.268Z,46.90
2022-09-04T22:29:37.666Z,47.10
2022-09-04T22:32:20.363Z,47.00
2022-09-04T22:35:20.161Z,47.00
2022-09-04T22:38:10.040Z,46.90
2022-09-04T22:41:03.178Z,47.00
2022-09-04T22:43:46.679Z,47.20
2022-09-04T22:46:30.432Z,47.20
2022-09-04T22:49:23.427Z,47.50
2022-09-04T22:52:31.117Z,47.80
2022-09-04T22:56:23.102Z,48.00
2022-09-04T22:58:27.332Z,47.80
2022-09-04T23:01:03.376Z,47.90
2022-09-04T23:03:59.207Z,48.00
2022-09-04T23:08:21.620Z,48.00
2022-09-04T23:13:52.838Z,47.90
2022-09-04T23:13:58.565Z,48.00
2022-09-04T23:15:45.296Z,48.10
2022-09-04T23:23:03.082Z,48.00
2022-09-04T23:26:46.249Z,48.10
2022-09-04T23:26:50.363Z,48.10
2022-09-04T23:28:27.506Z,48.10
2022-09-04T23:31:19.949Z,48.10
2022-09-04T23:34:25.361Z,48.10
2022-09-04T23:37:16.779Z,48.20
2022-09-04T23:40:10.268Z,48.20
2022-09-04T23:43:18.766Z,48.30
2022-09-04T23:46:15.673Z,48.50
2022-09-04T23:49:35.599Z,48.40
2022-09-04T23:52:26.978Z,48.50
2022-09-04T23:55:19.541Z,48.60
2022-09-04T23:58:27.702Z,48.60
